sensor_id;sensor_type;location;lat;lon;timestamp;temperature;humidity
5023;DHT22;2530;47.990;7.866;2023-04-24T00:01:11;12.50;99.90
5023;DHT22;2530;47.990;7.866;2023-04-24T00:03:38;12.50;99.90
5023;DHT22;2530;47.990;7.866;2023-04-24T00:06:04;12.50;99.90
5023;DHT22;2530;47.990;7.866;2023-04-24T00:08:32;12.50;99.90
5023;DHT22;2530;47.990;7.866;2023-04-24T00:10:57;12.50;99.90
5023;DHT22;2530;47.990;7.866;2023-04-24T00:13:23;12.40;99.90
5023;DHT22;2530;47.990;7.866;2023-04-24T00:15:49;12.40;99.90
5023;DHT22;2530;47.990;7.866;2023-04-24T00:18:14;12.50;99.90
5023;DHT22;2530;47.990;7.866;2023-04-24T00:20:40;12.50;99.90
5023;DHT22;2530;47.990;7.866;2023-04-24T00:23:06;12.50;99.90
5023;DHT22;2530;47.990;7.866;2023-04-24T00:25:31;12.50;99.90
5023;DHT22;2530;47.990;7.866;2023-04-24T00:27:57;12.50;99.90
5023;DHT22;2530;47.990;7.866;2023-04-24T00:30:22;12.50;99.90
5023;DHT22;2530;47.990;7.866;2023-04-24T00:32:48;12.50;99.90
5023;DHT22;2530;47.990;7.866;2023-04-24T00:35:13;12.50;99.90
5023;DHT22;2530;47.990;7.866;2023-04-24T00:37:39;12.40;99.90
5023;DHT22;2530;47.990;7.866;2023-04-24T00:40:06;12.50;99.90
5023;DHT22;2530;47.990;7.866;2023-04-24T00:42:32;12.40;99.90
5023;DHT22;2530;47.990;7.866;2023-04-24T00:44:58;12.40;99.90
5023;DHT22;2530;47.990;7.866;2023-04-24T00:47:25;12.40;99.90
5023;DHT22;2530;47.990;7.866;2023-04-24T00:49:50;12.30;99.90
5023;DHT22;2530;47.990;7.866;2023-04-24T00:52:16;12.30;99.90
5023;DHT22;2530;47.990;7.866;2023-04-24T00:54:44;12.30;99.90
5023;DHT22;2530;47.990;7.866;2023-04-24T00:57:10;12.20;99.90
5023;DHT22;2530;47.990;7.866;2023-04-24T00:59:36;12.20;99.90
5023;DHT22;2530;47.990;7.866;2023-04-24T01:02:02;12.20;99.90
5023;DHT22;2530;47.990;7.866;2023-04-24T01:04:28;12.20;99.90
5023;DHT22;2530;47.990;7.866;2023-04-24T01:06:54;12.20;99.90
5023;DHT22;2530;47.990;7.866;2023-04-24T01:09:22;12.20;99.90
5023;DHT22;2530;47.990;7.866;2023-04-24T01:11:49;12.10;99.90
5023;DHT22;2530;47.990;7.866;2023-04-24T01:14:15;12.10;99.90
5023;DHT22;2530;47.990;7.866;2023-04-24T01:16:40;12.10;99.90
5023;DHT22;2530;47.990;7.866;2023-04-24T01:19:07;12.10;99.90
5023;DHT22;2530;47.990;7.866;2023-04-24T01:21:36;12.10;99.90
5023;DHT22;2530;47.990;7.866;2023-04-24T01:24:06;12.10;99.90
5023;DHT22;2530;47.990;7.866;2023-04-24T01:26:31;12.10;99.90
5023;DHT22;2530;47.990;7.866;2023-04-24T01:28:57;12.10;99.90
5023;DHT22;2530;47.990;7.866;2023-04-24T01:31:23;12.20;99.90
5023;DHT22;2530;47.990;7.866;2023-04-24T01:33:49;12.10;99.90
5023;DHT22;2530;47.990;7.866;2023-04-24T01:36:16;12.10;99.90
5023;DHT22;2530;47.990;7.866;2023-04-24T01:38:41;12.10;99.90
5023;DHT22;2530;47.990;7.866;2023-04-24T01:41:07;12.10;99.90
5023;DHT22;2530;47.990;7.866;2023-04-24T01:43:33;12.00;99.90
5023;DHT22;2530;47.990;7.866;2023-04-24T01:45:58;12.00;99.90
5023;DHT22;2530;47.990;7.866;2023-04-24T01:48:24;12.00;99.90
5023;DHT22;2530;47.990;7.866;2023-04-24T01:50:50;11.90;99.90
5023;DHT22;2530;47.990;7.866;2023-04-24T01:53:15;11.90;99.90
5023;DHT22;2530;47.990;7.866;2023-04-24T01:55:41;11.90;99.90
5023;DHT22;2530;47.990;7.866;2023-04-24T01:58:06;11.90;99.90
5023;DHT22;2530;47.990;7.866;2023-04-24T02:00:32;11.90;99.90
5023;DHT22;2530;47.990;7.866;2023-04-24T02:02:57;11.90;99.90
5023;DHT22;2530;47.990;7.866;2023-04-24T02:05:23;11.90;99.90
5023;DHT22;2530;47.990;7.866;2023-04-24T02:07:49;11.80;99.90
5023;DHT22;2530;47.990;7.866;2023-04-24T02:10:14;11.90;99.90
5023;DHT22;2530;47.990;7.866;2023-04-24T02:12:40;11.90;99.90
5023;DHT22;2530;47.990;7.866;2023-04-24T02:15:05;11.90;99.90
5023;DHT22;2530;47.990;7.866;2023-04-24T02:17:31;11.90;99.90
5023;DHT22;2530;47.990;7.866;2023-04-24T02:19:57;11.90;99.90
5023;DHT22;2530;47.990;7.866;2023-04-24T02:22:22;11.80;99.90
5023;DHT22;2530;47.990;7.866;2023-04-24T02:24:48;11.90;99.90
5023;DHT22;2530;47.990;7.866;2023-04-24T02:27:13;11.80;99.90
5023;DHT22;2530;47.990;7.866;2023-04-24T02:29:40;11.70;99.90
5023;DHT22;2530;47.990;7.866;2023-04-24T02:32:05;11.70;99.90
5023;DHT22;2530;47.990;7.866;2023-04-24T02:34:30;11.70;99.90
5023;DHT22;2530;47.990;7.866;2023-04-24T02:36:56;11.70;99.90
5023;DHT22;2530;47.990;7.866;2023-04-24T02:39:22;11.70;99.90
5023;DHT22;2530;47.990;7.866;2023-04-24T02:41:47;11.60;99.90
5023;DHT22;2530;47.990;7.866;2023-04-24T02:44:13;11.60;99.90
5023;DHT22;2530;47.990;7.866;2023-04-24T02:46:38;11.60;99.90
5023;DHT22;2530;47.990;7.866;2023-04-24T02:49:06;11.70;99.90
5023;DHT22;2530;47.990;7.866;2023-04-24T02:51:31;11.80;99.90
5023;DHT22;2530;47.990;7.866;2023-04-24T02:53:57;11.80;99.90
5023;DHT22;2530;47.990;7.866;2023-04-24T02:56:23;11.80;99.90
5023;DHT22;2530;47.990;7.866;2023-04-24T02:58:48;11.80;99.90
5023;DHT22;2530;47.990;7.866;2023-04-24T03:01:13;11.80;99.90
5023;DHT22;2530;47.990;7.866;2023-04-24T03:03:40;11.80;99.90
5023;DHT22;2530;47.990;7.866;2023-04-24T03:06:06;11.80;99.90
5023;DHT22;2530;47.990;7.866;2023-04-24T03:08:33;11.80;99.90
5023;DHT22;2530;47.990;7.866;2023-04-24T03:10:58;11.80;99.90
5023;DHT22;2530;47.990;7.866;2023-04-24T03:13:24;11.80;99.90
5023;DHT22;2530;47.990;7.866;2023-04-24T03:15:49;11.80;99.90
5023;DHT22;2530;47.990;7.866;2023-04-24T03:18:15;11.80;99.90
5023;DHT22;2530;47.990;7.866;2023-04-24T03:20:40;11.80;99.90
5023;DHT22;2530;47.990;7.866;2023-04-24T03:23:06;11.80;99.90
5023;DHT22;2530;47.990;7.866;2023-04-24T03:25:31;11.80;99.90
5023;DHT22;2530;47.990;7.866;2023-04-24T03:27:57;11.80;99.90
5023;DHT22;2530;47.990;7.866;2023-04-24T03:30:22;11.70;99.90
5023;DHT22;2530;47.990;7.866;2023-04-24T03:32:48;11.70;99.90
5023;DHT22;2530;47.990;7.866;2023-04-24T03:35:13;11.60;99.90
5023;DHT22;2530;47.990;7.866;2023-04-24T03:37:39;11.60;99.90
5023;DHT22;2530;47.990;7.866;2023-04-24T03:40:05;11.60;99.90
5023;DHT22;2530;47.990;7.866;2023-04-24T03:42:32;11.50;99.90
5023;DHT22;2530;47.990;7.866;2023-04-24T03:44:57;11.50;99.90
5023;DHT22;2530;47.990;7.866;2023-04-24T03:47:23;11.50;99.90
5023;DHT22;2530;47.990;7.866;2023-04-24T03:49:49;11.50;99.90
5023;DHT22;2530;47.990;7.866;2023-04-24T03:52:14;11.40;99.90
5023;DHT22;2530;47.990;7.866;2023-04-24T03:54:40;11.40;99.90
5023;DHT22;2530;47.990;7.866;2023-04-24T03:57:05;11.50;99.90
5023;DHT22;2530;47.990;7.866;2023-04-24T03:59:31;11.40;99.90
5023;DHT22;2530;47.990;7.866;2023-04-24T04:01:56;11.50;99.90
5023;DHT22;2530;47.990;7.866;2023-04-24T04:04:22;11.40;99.90
5023;DHT22;2530;47.990;7.866;2023-04-24T04:06:47;11.40;99.90
5023;DHT22;2530;47.990;7.866;2023-04-24T04:09:13;11.30;99.90
5023;DHT22;2530;47.990;7.866;2023-04-24T04:11:39;11.40;99.90
5023;DHT22;2530;47.990;7.866;2023-04-24T04:14:04;11.40;99.90
5023;DHT22;2530;47.990;7.866;2023-04-24T04:16:30;11.30;99.90
5023;DHT22;2530;47.990;7.866;2023-04-24T04:18:56;11.30;99.90
5023;DHT22;2530;47.990;7.866;2023-04-24T04:21:21;11.30;99.90
5023;DHT22;2530;47.990;7.866;2023-04-24T04:23:47;11.30;99.90
5023;DHT22;2530;47.990;7.866;2023-04-24T04:26:13;11.30;99.90
5023;DHT22;2530;47.990;7.866;2023-04-24T04:28:38;11.30;99.90
5023;DHT22;2530;47.990;7.866;2023-04-24T04:31:05;11.20;99.90
5023;DHT22;2530;47.990;7.866;2023-04-24T04:33:30;11.30;99.90
5023;DHT22;2530;47.990;7.866;2023-04-24T04:35:56;11.30;99.90
5023;DHT22;2530;47.990;7.866;2023-04-24T04:38:23;11.30;99.90
5023;DHT22;2530;47.990;7.866;2023-04-24T04:40:49;11.30;99.90
5023;DHT22;2530;47.990;7.866;2023-04-24T04:43:15;11.20;99.90
5023;DHT22;2530;47.990;7.866;2023-04-24T04:45:41;11.30;99.90
5023;DHT22;2530;47.990;7.866;2023-04-24T04:48:08;11.30;99.90
5023;DHT22;2530;47.990;7.866;2023-04-24T04:50:37;11.30;99.90
5023;DHT22;2530;47.990;7.866;2023-04-24T04:53:02;11.40;99.90
5023;DHT22;2530;47.990;7.866;2023-04-24T04:55:28;11.40;99.90
5023;DHT22;2530;47.990;7.866;2023-04-24T04:57:53;11.30;99.90
5023;DHT22;2530;47.990;7.866;2023-04-24T05:00:20;11.30;99.90
5023;DHT22;2530;47.990;7.866;2023-04-24T05:02:46;11.40;99.90
5023;DHT22;2530;47.990;7.866;2023-04-24T05:05:12;11.30;99.90
5023;DHT22;2530;47.990;7.866;2023-04-24T05:07:38;11.30;99.90
5023;DHT22;2530;47.990;7.866;2023-04-24T05:10:04;11.30;99.90
5023;DHT22;2530;47.990;7.866;2023-04-24T05:12:30;11.40;99.90
5023;DHT22;2530;47.990;7.866;2023-04-24T05:14:55;11.40;99.90
5023;DHT22;2530;47.990;7.866;2023-04-24T05:17:21;11.40;99.90
5023;DHT22;2530;47.990;7.866;2023-04-24T05:19:46;11.40;99.90
5023;DHT22;2530;47.990;7.866;2023-04-24T05:22:12;11.30;99.90
5023;DHT22;2530;47.990;7.866;2023-04-24T05:24:37;11.20;99.90
5023;DHT22;2530;47.990;7.866;2023-04-24T05:27:03;11.20;99.90
5023;DHT22;2530;47.990;7.866;2023-04-24T05:29:30;11.20;99.90
5023;DHT22;2530;47.990;7.866;2023-04-24T05:31:59;11.10;99.90
5023;DHT22;2530;47.990;7.866;2023-04-24T05:34:25;11.10;99.90
5023;DHT22;2530;47.990;7.866;2023-04-24T05:36:51;11.00;99.90
5023;DHT22;2530;47.990;7.866;2023-04-24T05:39:17;10.90;99.90
5023;DHT22;2530;47.990;7.866;2023-04-24T05:41:43;10.90;99.90
5023;DHT22;2530;47.990;7.866;2023-04-24T05:44:09;10.80;99.90
5023;DHT22;2530;47.990;7.866;2023-04-24T05:46:34;10.80;99.90
5023;DHT22;2530;47.990;7.866;2023-04-24T05:49:00;10.80;99.90
5023;DHT22;2530;47.990;7.866;2023-04-24T05:51:26;10.80;99.90
5023;DHT22;2530;47.990;7.866;2023-04-24T05:53:51;10.80;99.90
5023;DHT22;2530;47.990;7.866;2023-04-24T05:56:17;10.80;99.90
5023;DHT22;2530;47.990;7.866;2023-04-24T05:58:45;10.80;99.90
5023;DHT22;2530;47.990;7.866;2023-04-24T06:01:11;10.80;99.90
5023;DHT22;2530;47.990;7.866;2023-04-24T06:03:38;10.80;99.90
5023;DHT22;2530;47.990;7.866;2023-04-24T06:06:05;10.70;99.90
5023;DHT22;2530;47.990;7.866;2023-04-24T06:08:31;10.80;99.90
5023;DHT22;2530;47.990;7.866;2023-04-24T06:10:56;10.80;99.90
5023;DHT22;2530;47.990;7.866;2023-04-24T06:13:22;10.70;99.90
5023;DHT22;2530;47.990;7.866;2023-04-24T06:15:47;10.90;99.90
5023;DHT22;2530;47.990;7.866;2023-04-24T06:18:13;11.00;99.90
5023;DHT22;2530;47.990;7.866;2023-04-24T06:20:39;11.00;99.90
5023;DHT22;2530;47.990;7.866;2023-04-24T06:23:05;11.00;99.90
5023;DHT22;2530;47.990;7.866;2023-04-24T06:25:30;11.00;99.90
5023;DHT22;2530;47.990;7.866;2023-04-24T06:27:57;11.10;99.90
5023;DHT22;2530;47.990;7.866;2023-04-24T06:30:22;11.00;99.90
5023;DHT22;2530;47.990;7.866;2023-04-24T06:32:48;11.10;99.90
5023;DHT22;2530;47.990;7.866;2023-04-24T06:35:14;10.90;99.90
5023;DHT22;2530;47.990;7.866;2023-04-24T06:37:41;10.90;99.90
5023;DHT22;2530;47.990;7.866;2023-04-24T06:40:07;10.90;99.90
5023;DHT22;2530;47.990;7.866;2023-04-24T06:42:32;10.80;99.90
5023;DHT22;2530;47.990;7.866;2023-04-24T06:44:58;10.80;99.90
5023;DHT22;2530;47.990;7.866;2023-04-24T06:47:23;10.80;99.90
5023;DHT22;2530;47.990;7.866;2023-04-24T06:49:49;10.70;99.90
5023;DHT22;2530;47.990;7.866;2023-04-24T06:52:16;10.70;99.90
5023;DHT22;2530;47.990;7.866;2023-04-24T06:54:41;10.70;99.90
5023;DHT22;2530;47.990;7.866;2023-04-24T06:57:08;10.80;99.90
5023;DHT22;2530;47.990;7.866;2023-04-24T06:59:34;10.70;99.90
5023;DHT22;2530;47.990;7.866;2023-04-24T07:01:59;10.70;99.90
5023;DHT22;2530;47.990;7.866;2023-04-24T07:04:25;10.80;99.90
5023;DHT22;2530;47.990;7.866;2023-04-24T07:06:51;10.70;99.90
5023;DHT22;2530;47.990;7.866;2023-04-24T07:09:16;10.90;99.90
5023;DHT22;2530;47.990;7.866;2023-04-24T07:11:44;11.00;99.90
5023;DHT22;2530;47.990;7.866;2023-04-24T07:14:10;11.10;99.90
5023;DHT22;2530;47.990;7.866;2023-04-24T07:16:35;11.10;99.90
5023;DHT22;2530;47.990;7.866;2023-04-24T07:19:01;11.20;99.90
5023;DHT22;2530;47.990;7.866;2023-04-24T07:21:26;11.20;99.90
5023;DHT22;2530;47.990;7.866;2023-04-24T07:23:52;11.10;99.90
5023;DHT22;2530;47.990;7.866;2023-04-24T07:26:18;11.00;99.90
5023;DHT22;2530;47.990;7.866;2023-04-24T07:28:43;11.10;99.90
5023;DHT22;2530;47.990;7.866;2023-04-24T07:31:10;11.20;98.30
5023;DHT22;2530;47.990;7.866;2023-04-24T07:33:36;11.30;92.50
5023;DHT22;2530;47.990;7.866;2023-04-24T07:36:01;11.40;95.20
5023;DHT22;2530;47.990;7.866;2023-04-24T07:38:29;11.40;82.80
5023;DHT22;2530;47.990;7.866;2023-04-24T07:40:55;11.40;74.70
5023;DHT22;2530;47.990;7.866;2023-04-24T07:43:21;11.30;68.90
5023;DHT22;2530;47.990;7.866;2023-04-24T07:45:47;11.50;57.20
5023;DHT22;2530;47.990;7.866;2023-04-24T07:48:12;11.70;53.80
5023;DHT22;2530;47.990;7.866;2023-04-24T07:50:41;11.80;46.80
5023;DHT22;2530;47.990;7.866;2023-04-24T07:53:07;12.10;51.10
5023;DHT22;2530;47.990;7.866;2023-04-24T07:55:33;12.40;47.10
5023;DHT22;2530;47.990;7.866;2023-04-24T07:57:58;12.30;33.70
5023;DHT22;2530;47.990;7.866;2023-04-24T08:00:24;12.10;33.30
5023;DHT22;2530;47.990;7.866;2023-04-24T08:02:49;12.00;36.70
5023;DHT22;2530;47.990;7.866;2023-04-24T08:05:15;12.00;38.70
5023;DHT22;2530;47.990;7.866;2023-04-24T08:07:40;11.90;39.10
5023;DHT22;2530;47.990;7.866;2023-04-24T08:10:09;11.90;43.60
5023;DHT22;2530;47.990;7.866;2023-04-24T08:12:35;12.00;40.30
5023;DHT22;2530;47.990;7.866;2023-04-24T08:15:01;12.00;40.30
5023;DHT22;2530;47.990;7.866;2023-04-24T08:17:26;11.80;38.50
5023;DHT22;2530;47.990;7.866;2023-04-24T08:19:52;11.80;43.00
5023;DHT22;2530;47.990;7.866;2023-04-24T08:22:24;11.80;45.60
5023;DHT22;2530;47.990;7.866;2023-04-24T08:24:49;11.90;43.90
5023;DHT22;2530;47.990;7.866;2023-04-24T08:27:15;12.00;46.30
5023;DHT22;2530;47.990;7.866;2023-04-24T08:29:40;11.80;46.30
5023;DHT22;2530;47.990;7.866;2023-04-24T08:32:06;11.70;49.50
5023;DHT22;2530;47.990;7.866;2023-04-24T08:34:31;11.60;56.50
5023;DHT22;2530;47.990;7.866;2023-04-24T08:36:57;11.70;54.80
5023;DHT22;2530;47.990;7.866;2023-04-24T08:39:23;11.70;55.20
5023;DHT22;2530;47.990;7.866;2023-04-24T08:41:48;11.70;55.10
5023;DHT22;2530;47.990;7.866;2023-04-24T08:44:14;12.00;54.30
5023;DHT22;2530;47.990;7.866;2023-04-24T08:46:43;12.20;33.60
5023;DHT22;2530;47.990;7.866;2023-04-24T08:49:09;12.40;23.00
5023;DHT22;2530;47.990;7.866;2023-04-24T08:51:36;12.40;16.10
5023;DHT22;2530;47.990;7.866;2023-04-24T08:54:03;12.30;11.30
5023;DHT22;2530;47.990;7.866;2023-04-24T08:56:29;12.30;9.10
5023;DHT22;2530;47.990;7.866;2023-04-24T08:58:56;12.30;9.40
5023;DHT22;2530;47.990;7.866;2023-04-24T09:01:24;12.30;7.60
5023;DHT22;2530;47.990;7.866;2023-04-24T09:03:50;12.40;5.60
5023;DHT22;2530;47.990;7.866;2023-04-24T09:06:17;12.30;5.90
5023;DHT22;2530;47.990;7.866;2023-04-24T09:08:45;12.50;7.00
5023;DHT22;2530;47.990;7.866;2023-04-24T09:11:12;12.20;2.90
5023;DHT22;2530;47.990;7.866;2023-04-24T09:13:37;12.30;2.80
5023;DHT22;2530;47.990;7.866;2023-04-24T09:16:03;12.30;3.20
5023;DHT22;2530;47.990;7.866;2023-04-24T09:18:29;12.40;2.40
5023;DHT22;2530;47.990;7.866;2023-04-24T09:21:03;12.40;2.40
5023;DHT22;2530;47.990;7.866;2023-04-24T09:23:30;12.40;1.90
5023;DHT22;2530;47.990;7.866;2023-04-24T09:25:58;12.50;1.00
5023;DHT22;2530;47.990;7.866;2023-04-24T09:28:32;12.10;1.00
5023;DHT22;2530;47.990;7.866;2023-04-24T09:31:09;12.30;1.00
5023;DHT22;2530;47.990;7.866;2023-04-24T09:33:35;12.40;1.00
5023;DHT22;2530;47.990;7.866;2023-04-24T09:36:02;12.50;1.00
5023;DHT22;2530;47.990;7.866;2023-04-24T09:38:38;12.30;1.00
5023;DHT22;2530;47.990;7.866;2023-04-24T09:41:08;12.00;1.00
5023;DHT22;2530;47.990;7.866;2023-04-24T09:43:35;11.90;1.00
5023;DHT22;2530;47.990;7.866;2023-04-24T09:46:06;11.90;1.00
5023;DHT22;2530;47.990;7.866;2023-04-24T09:48:34;11.80;1.40
5023;DHT22;2530;47.990;7.866;2023-04-24T09:51:01;11.90;1.50
5023;DHT22;2530;47.990;7.866;2023-04-24T09:53:27;11.90;1.30
5023;DHT22;2530;47.990;7.866;2023-04-24T09:55:53;11.90;2.00
5023;DHT22;2530;47.990;7.866;2023-04-24T09:58:25;12.20;1.80
5023;DHT22;2530;47.990;7.866;2023-04-24T10:00:53;12.10;2.00
5023;DHT22;2530;47.990;7.866;2023-04-24T10:03:20;12.00;1.10
5023;DHT22;2530;47.990;7.866;2023-04-24T10:05:46;11.70;1.60
5023;DHT22;2530;47.990;7.866;2023-04-24T10:08:13;11.60;2.50
5023;DHT22;2530;47.990;7.866;2023-04-24T10:10:43;11.90;1.90
5023;DHT22;2530;47.990;7.866;2023-04-24T10:13:10;12.40;1.00
5023;DHT22;2530;47.990;7.866;2023-04-24T10:15:37;12.60;1.00
5023;DHT22;2530;47.990;7.866;2023-04-24T10:18:04;12.60;1.00
5023;DHT22;2530;47.990;7.866;2023-04-24T10:20:31;12.70;1.00
5023;DHT22;2530;47.990;7.866;2023-04-24T10:22:58;12.90;1.00
5023;DHT22;2530;47.990;7.866;2023-04-24T10:25:28;12.80;1.00
5023;DHT22;2530;47.990;7.866;2023-04-24T10:27:55;13.00;1.00
5023;DHT22;2530;47.990;7.866;2023-04-24T10:30:23;13.30;1.00
5023;DHT22;2530;47.990;7.866;2023-04-24T10:32:49;13.20;1.00
5023;DHT22;2530;47.990;7.866;2023-04-24T10:35:16;13.20;1.00
5023;DHT22;2530;47.990;7.866;2023-04-24T10:38:10;13.20;1.00
5023;DHT22;2530;47.990;7.866;2023-04-24T10:40:36;13.00;1.00
5023;DHT22;2530;47.990;7.866;2023-04-24T10:43:03;13.20;1.00
5023;DHT22;2530;47.990;7.866;2023-04-24T10:45:31;13.40;1.00
5023;DHT22;2530;47.990;7.866;2023-04-24T10:48:08;13.20;1.00
5023;DHT22;2530;47.990;7.866;2023-04-24T10:50:51;12.70;1.00
5023;DHT22;2530;47.990;7.866;2023-04-24T10:53:18;12.70;1.00
5023;DHT22;2530;47.990;7.866;2023-04-24T10:55:47;13.10;1.00
5023;DHT22;2530;47.990;7.866;2023-04-24T10:58:13;12.80;1.00
5023;DHT22;2530;47.990;7.866;2023-04-24T11:00:40;12.70;1.00
5023;DHT22;2530;47.990;7.866;2023-04-24T11:03:22;12.80;1.00
5023;DHT22;2530;47.990;7.866;2023-04-24T11:06:06;12.70;1.00
5023;DHT22;2530;47.990;7.866;2023-04-24T11:08:40;12.50;1.00
5023;DHT22;2530;47.990;7.866;2023-04-24T11:11:15;12.40;1.00
5023;DHT22;2530;47.990;7.866;2023-04-24T11:16:24;12.20;1.00
5023;DHT22;2530;47.990;7.866;2023-04-24T11:18:52;12.10;1.00
5023;DHT22;2530;47.990;7.866;2023-04-24T11:21:20;12.10;1.00
5023;DHT22;2530;47.990;7.866;2023-04-24T11:23:46;12.00;1.00
5023;DHT22;2530;47.990;7.866;2023-04-24T11:26:21;12.00;1.00
5023;DHT22;2530;47.990;7.866;2023-04-24T11:28:50;12.00;1.00
5023;DHT22;2530;47.990;7.866;2023-04-24T11:31:35;12.10;1.00
5023;DHT22;2530;47.990;7.866;2023-04-24T11:34:11;12.30;1.00
5023;DHT22;2530;47.990;7.866;2023-04-24T11:36:37;12.50;1.00
5023;DHT22;2530;47.990;7.866;2023-04-24T11:39:03;12.50;1.00
5023;DHT22;2530;47.990;7.866;2023-04-24T11:41:29;12.70;1.00
5023;DHT22;2530;47.990;7.866;2023-04-24T11:43:56;12.50;1.00
5023;DHT22;2530;47.990;7.866;2023-04-24T11:46:22;12.60;1.00
5023;DHT22;2530;47.990;7.866;2023-04-24T11:48:47;12.60;1.00
5023;DHT22;2530;47.990;7.866;2023-04-24T11:51:14;12.70;1.00
5023;DHT22;2530;47.990;7.866;2023-04-24T11:53:39;12.80;1.00
5023;DHT22;2530;47.990;7.866;2023-04-24T11:56:05;12.90;1.00
5023;DHT22;2530;47.990;7.866;2023-04-24T11:58:38;12.90;1.00
5023;DHT22;2530;47.990;7.866;2023-04-24T12:01:05;13.20;1.00
5023;DHT22;2530;47.990;7.866;2023-04-24T12:03:31;13.50;1.00
5023;DHT22;2530;47.990;7.866;2023-04-24T12:06:07;13.90;1.00
5023;DHT22;2530;47.990;7.866;2023-04-24T12:08:36;13.80;1.00
5023;DHT22;2530;47.990;7.866;2023-04-24T12:11:02;13.40;1.00
5023;DHT22;2530;47.990;7.866;2023-04-24T12:13:28;13.40;1.00
5023;DHT22;2530;47.990;7.866;2023-04-24T12:15:54;13.20;1.00
5023;DHT22;2530;47.990;7.866;2023-04-24T12:18:22;12.90;1.00
5023;DHT22;2530;47.990;7.866;2023-04-24T12:20:48;13.10;1.00
5023;DHT22;2530;47.990;7.866;2023-04-24T12:23:14;13.30;1.00
5023;DHT22;2530;47.990;7.866;2023-04-24T12:25:39;13.20;1.00
5023;DHT22;2530;47.990;7.866;2023-04-24T12:30:33;13.40;1.00
5023;DHT22;2530;47.990;7.866;2023-04-24T12:33:00;13.50;1.00
5023;DHT22;2530;47.990;7.866;2023-04-24T12:35:29;13.20;1.00
5023;DHT22;2530;47.990;7.866;2023-04-24T12:37:55;13.30;1.00
5023;DHT22;2530;47.990;7.866;2023-04-24T12:40:21;13.10;1.00
5023;DHT22;2530;47.990;7.866;2023-04-24T12:42:48;13.00;1.00
5023;DHT22;2530;47.990;7.866;2023-04-24T12:45:15;13.00;1.00
5023;DHT22;2530;47.990;7.866;2023-04-24T12:47:42;12.90;1.00
5023;DHT22;2530;47.990;7.866;2023-04-24T12:50:10;12.90;1.00
5023;DHT22;2530;47.990;7.866;2023-04-24T12:52:36;12.90;1.00
5023;DHT22;2530;47.990;7.866;2023-04-24T12:55:02;12.90;1.00
5023;DHT22;2530;47.990;7.866;2023-04-24T12:57:29;12.90;1.00
5023;DHT22;2530;47.990;7.866;2023-04-24T12:59:56;13.00;1.00
5023;DHT22;2530;47.990;7.866;2023-04-24T13:02:26;13.10;1.00
5023;DHT22;2530;47.990;7.866;2023-04-24T13:04:52;13.40;1.00
5023;DHT22;2530;47.990;7.866;2023-04-24T13:07:19;13.70;1.00
5023;DHT22;2530;47.990;7.866;2023-04-24T13:09:45;14.90;1.00
5023;DHT22;2530;47.990;7.866;2023-04-24T13:12:11;14.50;1.00
5023;DHT22;2530;47.990;7.866;2023-04-24T13:14:37;14.40;1.00
5023;DHT22;2530;47.990;7.866;2023-04-24T13:17:03;14.20;1.00
5023;DHT22;2530;47.990;7.866;2023-04-24T13:19:29;14.00;1.00
5023;DHT22;2530;47.990;7.866;2023-04-24T13:22:00;13.90;1.00
5023;DHT22;2530;47.990;7.866;2023-04-24T13:24:26;13.60;1.00
5023;DHT22;2530;47.990;7.866;2023-04-24T13:26:52;13.70;1.00
5023;DHT22;2530;47.990;7.866;2023-04-24T13:29:18;13.60;1.00
5023;DHT22;2530;47.990;7.866;2023-04-24T13:31:43;13.70;1.00
5023;DHT22;2530;47.990;7.866;2023-04-24T13:34:09;13.70;1.00
5023;DHT22;2530;47.990;7.866;2023-04-24T13:36:35;13.50;1.00
5023;DHT22;2530;47.990;7.866;2023-04-24T13:39:02;13.60;1.00
5023;DHT22;2530;47.990;7.866;2023-04-24T13:41:30;13.60;1.00
5023;DHT22;2530;47.990;7.866;2023-04-24T13:43:55;13.90;1.00
5023;DHT22;2530;47.990;7.866;2023-04-24T13:46:21;13.90;1.00
5023;DHT22;2530;47.990;7.866;2023-04-24T13:48:47;13.90;1.00
5023;DHT22;2530;47.990;7.866;2023-04-24T13:51:12;14.00;1.00
5023;DHT22;2530;47.990;7.866;2023-04-24T13:53:38;14.00;1.00
5023;DHT22;2530;47.990;7.866;2023-04-24T13:56:04;14.00;1.00
5023;DHT22;2530;47.990;7.866;2023-04-24T13:58:31;14.10;1.00
5023;DHT22;2530;47.990;7.866;2023-04-24T14:00:57;14.20;1.00
5023;DHT22;2530;47.990;7.866;2023-04-24T14:03:23;13.90;1.00
5023;DHT22;2530;47.990;7.866;2023-04-24T14:05:48;13.70;1.00
5023;DHT22;2530;47.990;7.866;2023-04-24T14:08:14;13.60;1.00
5023;DHT22;2530;47.990;7.866;2023-04-24T14:10:42;13.50;1.00
5023;DHT22;2530;47.990;7.866;2023-04-24T14:13:08;13.60;1.00
5023;DHT22;2530;47.990;7.866;2023-04-24T14:15:35;13.50;1.00
5023;DHT22;2530;47.990;7.866;2023-04-24T14:18:01;13.50;1.00
5023;DHT22;2530;47.990;7.866;2023-04-24T14:20:26;13.60;1.00
5023;DHT22;2530;47.990;7.866;2023-04-24T14:22:52;13.50;1.00
5023;DHT22;2530;47.990;7.866;2023-04-24T14:25:18;13.50;1.30
5023;DHT22;2530;47.990;7.866;2023-04-24T14:27:44;13.30;1.50
5023;DHT22;2530;47.990;7.866;2023-04-24T14:30:09;13.10;1.50
5023;DHT22;2530;47.990;7.866;2023-04-24T14:32:35;12.90;2.60
5023;DHT22;2530;47.990;7.866;2023-04-24T14:35:01;12.70;3.80
5023;DHT22;2530;47.990;7.866;2023-04-24T14:37:26;12.90;5.00
5023;DHT22;2530;47.990;7.866;2023-04-24T14:39:52;12.70;4.80
5023;DHT22;2530;47.990;7.866;2023-04-24T14:42:17;12.90;4.60
5023;DHT22;2530;47.990;7.866;2023-04-24T14:44:43;12.60;5.10
5023;DHT22;2530;47.990;7.866;2023-04-24T14:47:08;12.60;4.80
5023;DHT22;2530;47.990;7.866;2023-04-24T14:49:34;12.70;4.10
5023;DHT22;2530;47.990;7.866;2023-04-24T14:52:00;12.70;2.70
5023;DHT22;2530;47.990;7.866;2023-04-24T14:54:26;12.70;1.00
5023;DHT22;2530;47.990;7.866;2023-04-24T14:56:51;12.80;1.00
5023;DHT22;2530;47.990;7.866;2023-04-24T14:59:17;12.70;1.00
5023;DHT22;2530;47.990;7.866;2023-04-24T15:01:42;12.70;1.00
5023;DHT22;2530;47.990;7.866;2023-04-24T15:04:08;12.80;1.00
5023;DHT22;2530;47.990;7.866;2023-04-24T15:06:34;12.90;1.00
5023;DHT22;2530;47.990;7.866;2023-04-24T15:08:59;13.10;1.00
5023;DHT22;2530;47.990;7.866;2023-04-24T15:11:25;13.30;1.00
5023;DHT22;2530;47.990;7.866;2023-04-24T15:13:51;13.30;1.00
5023;DHT22;2530;47.990;7.866;2023-04-24T15:16:16;13.20;1.40
5023;DHT22;2530;47.990;7.866;2023-04-24T15:18:42;13.10;1.80
5023;DHT22;2530;47.990;7.866;2023-04-24T15:21:08;13.10;2.40
5023;DHT22;2530;47.990;7.866;2023-04-24T15:23:33;13.20;1.90
5023;DHT22;2530;47.990;7.866;2023-04-24T15:25:59;13.10;1.70
5023;DHT22;2530;47.990;7.866;2023-04-24T15:28:26;13.10;2.40
5023;DHT22;2530;47.990;7.866;2023-04-24T15:30:51;13.00;3.00
5023;DHT22;2530;47.990;7.866;2023-04-24T15:33:17;13.00;3.20
5023;DHT22;2530;47.990;7.866;2023-04-24T15:35:42;13.10;3.50
5023;DHT22;2530;47.990;7.866;2023-04-24T15:38:08;13.20;3.10
5023;DHT22;2530;47.990;7.866;2023-04-24T15:40:33;13.30;2.50
5023;DHT22;2530;47.990;7.866;2023-04-24T15:42:59;13.20;3.00
5023;DHT22;2530;47.990;7.866;2023-04-24T15:45:25;13.10;2.10
5023;DHT22;2530;47.990;7.866;2023-04-24T15:47:51;13.00;2.50
5023;DHT22;2530;47.990;7.866;2023-04-24T15:50:17;13.10;2.70
5023;DHT22;2530;47.990;7.866;2023-04-24T15:52:44;13.00;2.90
5023;DHT22;2530;47.990;7.866;2023-04-24T15:55:10;13.00;3.30
5023;DHT22;2530;47.990;7.866;2023-04-24T15:57:35;13.10;4.10
5023;DHT22;2530;47.990;7.866;2023-04-24T16:00:02;13.20;3.80
5023;DHT22;2530;47.990;7.866;2023-04-24T16:02:31;13.20;3.60
5023;DHT22;2530;47.990;7.866;2023-04-24T16:04:56;13.30;3.60
5023;DHT22;2530;47.990;7.866;2023-04-24T16:07:22;13.20;4.00
5023;DHT22;2530;47.990;7.866;2023-04-24T16:09:47;13.10;4.10